sensor_id;sensor_type;location;lat;lon;timestamp;temperature;humidity
20504;DHT22;10410;51.046;6.980;2023-03-16T00:03:27;2.40;99.90
20504;DHT22;10410;51.046;6.980;2023-03-16T00:10:30;2.30;99.90
20504;DHT22;10410;51.046;6.980;2023-03-16T00:17:30;2.30;99.90
20504;DHT22;10410;51.046;6.980;2023-03-16T00:24:31;2.30;99.90
20504;DHT22;10410;51.046;6.980;2023-03-16T00:31:31;2.20;99.90
20504;DHT22;10410;51.046;6.980;2023-03-16T00:38:35;2.20;99.90
20504;DHT22;10410;51.046;6.980;2023-03-16T00:45:36;2.20;99.90
20504;DHT22;10410;51.046;6.980;2023-03-16T00:52:38;2.20;99.90
20504;DHT22;10410;51.046;6.980;2023-03-16T00:59:39;2.20;99.90
20504;DHT22;10410;51.046;6.980;2023-03-16T01:06:39;2.20;99.90
20504;DHT22;10410;51.046;6.980;2023-03-16T01:13:41;2.30;99.90
20504;DHT22;10410;51.046;6.980;2023-03-16T01:20:42;2.30;99.90
20504;DHT22;10410;51.046;6.980;2023-03-16T01:27:49;2.30;99.90
20504;DHT22;10410;51.046;6.980;2023-03-16T01:34:49;2.30;99.90
20504;DHT22;10410;51.046;6.980;2023-03-16T01:41:51;2.40;99.90
20504;DHT22;10410;51.046;6.980;2023-03-16T01:56:06;2.60;99.90
20504;DHT22;10410;51.046;6.980;2023-03-16T02:03:12;2.60;99.90
20504;DHT22;10410;51.046;6.980;2023-03-16T02:10:19;2.70;99.90
20504;DHT22;10410;51.046;6.980;2023-03-16T02:17:23;2.80;99.90
20504;DHT22;10410;51.046;6.980;2023-03-16T02:24:27;2.80;99.90
20504;DHT22;10410;51.046;6.980;2023-03-16T02:31:28;2.80;99.90
20504;DHT22;10410;51.046;6.980;2023-03-16T02:38:29;2.80;99.90
20504;DHT22;10410;51.046;6.980;2023-03-16T02:45:57;2.80;99.90
20504;DHT22;10410;51.046;6.980;2023-03-16T02:53:00;2.80;99.90
20504;DHT22;10410;51.046;6.980;2023-03-16T03:00:01;2.80;99.90
20504;DHT22;10410;51.046;6.980;2023-03-16T03:07:06;2.80;99.90
20504;DHT22;10410;51.046;6.980;2023-03-16T03:14:22;2.80;99.90
20504;DHT22;10410;51.046;6.980;2023-03-16T03:21:23;2.80;99.90
20504;DHT22;10410;51.046;6.980;2023-03-16T03:28:24;2.80;99.90
20504;DHT22;10410;51.046;6.980;2023-03-16T03:35:24;2.90;99.90
20504;DHT22;10410;51.046;6.980;2023-03-16T03:42:27;2.80;99.90
20504;DHT22;10410;51.046;6.980;2023-03-16T03:49:28;2.90;99.90
20504;DHT22;10410;51.046;6.980;2023-03-16T03:56:28;2.90;99.90
20504;DHT22;10410;51.046;6.980;2023-03-16T04:03:29;2.90;99.90
20504;DHT22;10410;51.046;6.980;2023-03-16T04:10:30;2.90;99.90
20504;DHT22;10410;51.046;6.980;2023-03-16T04:17:32;2.80;99.90
20504;DHT22;10410;51.046;6.980;2023-03-16T04:24:36;2.90;99.90
20504;DHT22;10410;51.046;6.980;2023-03-16T04:31:37;2.90;99.90
20504;DHT22;10410;51.046;6.980;2023-03-16T04:38:38;2.90;99.90
20504;DHT22;10410;51.046;6.980;2023-03-16T04:45:40;2.90;99.90
20504;DHT22;10410;51.046;6.980;2023-03-16T04:52:41;2.90;99.90
20504;DHT22;10410;51.046;6.980;2023-03-16T04:59:42;2.90;99.90
20504;DHT22;10410;51.046;6.980;2023-03-16T05:06:51;2.90;99.90
20504;DHT22;10410;51.046;6.980;2023-03-16T05:13:55;3.00;99.90
20504;DHT22;10410;51.046;6.980;2023-03-16T05:20:57;3.00;99.90
20504;DHT22;10410;51.046;6.980;2023-03-16T05:28:04;3.00;99.90
20504;DHT22;10410;51.046;6.980;2023-03-16T05:35:20;3.20;99.90
20504;DHT22;10410;51.046;6.980;2023-03-16T05:42:26;3.20;99.90
20504;DHT22;10410;51.046;6.980;2023-03-16T05:49:31;3.30;99.90
20504;DHT22;10410;51.046;6.980;2023-03-16T05:56:35;3.40;99.90
20504;DHT22;10410;51.046;6.980;2023-03-16T06:03:36;3.40;99.90
20504;DHT22;10410;51.046;6.980;2023-03-16T06:10:38;3.40;99.90
20504;DHT22;10410;51.046;6.980;2023-03-16T06:17:39;3.50;99.90
20504;DHT22;10410;51.046;6.980;2023-03-16T06:24:40;3.60;99.90
20504;DHT22;10410;51.046;6.980;2023-03-16T06:31:41;3.70;99.90
20504;DHT22;10410;51.046;6.980;2023-03-16T06:38:43;3.70;99.90
20504;DHT22;10410;51.046;6.980;2023-03-16T06:45:55;3.80;99.90
20504;DHT22;10410;51.046;6.980;2023-03-16T06:52:56;3.90;99.90
20504;DHT22;10410;51.046;6.980;2023-03-16T06:59:57;4.00;99.90
20504;DHT22;10410;51.046;6.980;2023-03-16T07:06:58;4.10;99.90
20504;DHT22;10410;51.046;6.980;2023-03-16T07:13:59;4.20;99.90
20504;DHT22;10410;51.046;6.980;2023-03-16T07:21:02;4.30;99.90
20504;DHT22;10410;51.046;6.980;2023-03-16T07:28:03;4.40;99.90
20504;DHT22;10410;51.046;6.980;2023-03-16T07:35:09;4.50;99.90
20504;DHT22;10410;51.046;6.980;2023-03-16T07:42:11;4.60;99.90
20504;DHT22;10410;51.046;6.980;2023-03-16T07:49:32;4.70;99.90
20504;DHT22;10410;51.046;6.980;2023-03-16T07:56:34;4.80;99.90
20504;DHT22;10410;51.046;6.980;2023-03-16T08:03:55;4.90;99.90
20504;DHT22;10410;51.046;6.980;2023-03-16T08:10:56;5.10;99.90
20504;DHT22;10410;51.046;6.980;2023-03-16T08:18:05;5.30;99.90
20504;DHT22;10410;51.046;6.980;2023-03-16T08:25:08;5.40;99.90
20504;DHT22;10410;51.046;6.980;2023-03-16T08:32:12;5.50;99.90
20504;DHT22;10410;51.046;6.980;2023-03-16T08:39:15;5.70;99.90
20504;DHT22;10410;51.046;6.980;2023-03-16T08:46:19;5.80;99.90
20504;DHT22;10410;51.046;6.980;2023-03-16T08:53:26;6.00;99.90
20504;DHT22;10410;51.046;6.980;2023-03-16T09:00:27;6.20;99.90
20504;DHT22;10410;51.046;6.980;2023-03-16T09:07:28;6.30;99.90
20504;DHT22;10410;51.046;6.980;2023-03-16T09:14:29;6.40;99.90
20504;DHT22;10410;51.046;6.980;2023-03-16T09:21:30;6.50;99.90
20504;DHT22;10410;51.046;6.980;2023-03-16T09:28:31;6.60;99.90
20504;DHT22;10410;51.046;6.980;2023-03-16T09:35:32;6.80;99.90
20504;DHT22;10410;51.046;6.980;2023-03-16T09:42:47;7.10;99.90
20504;DHT22;10410;51.046;6.980;2023-03-16T09:49:57;7.40;99.90
20504;DHT22;10410;51.046;6.980;2023-03-16T09:56:59;7.70;99.90
20504;DHT22;10410;51.046;6.980;2023-03-16T10:11:37;8.10;99.90
20504;DHT22;10410;51.046;6.980;2023-03-16T10:18:42;8.20;99.90
20504;DHT22;10410;51.046;6.980;2023-03-16T10:25:49;8.40;99.90
20504;DHT22;10410;51.046;6.980;2023-03-16T10:32:50;8.40;99.90
20504;DHT22;10410;51.046;6.980;2023-03-16T10:39:51;8.50;99.90
20504;DHT22;10410;51.046;6.980;2023-03-16T10:47:03;8.70;99.90
20504;DHT22;10410;51.046;6.980;2023-03-16T10:54:14;8.90;99.90
20504;DHT22;10410;51.046;6.980;2023-03-16T11:01:24;9.00;99.90
20504;DHT22;10410;51.046;6.980;2023-03-16T11:08:36;9.20;99.90
20504;DHT22;10410;51.046;6.980;2023-03-16T11:22:43;9.50;99.90
20504;DHT22;10410;51.046;6.980;2023-03-16T11:29:58;9.70;99.90
20504;DHT22;10410;51.046;6.980;2023-03-16T11:44:25;10.10;99.90
20504;DHT22;10410;51.046;6.980;2023-03-16T12:00:30;10.40;99.90
20504;DHT22;10410;51.046;6.980;2023-03-16T12:14:19;10.70;99.90
20504;DHT22;10410;51.046;6.980;2023-03-16T12:21:36;11.00;99.90
20504;DHT22;10410;51.046;6.980;2023-03-16T12:28:40;11.30;99.90
20504;DHT22;10410;51.046;6.980;2023-03-16T12:50:12;11.70;99.90
20504;DHT22;10410;51.046;6.980;2023-03-16T12:57:15;11.70;99.90
20504;DHT22;10410;51.046;6.980;2023-03-16T13:04:30;11.80;99.90
20504;DHT22;10410;51.046;6.980;2023-03-16T13:11:46;11.90;99.90
20504;DHT22;10410;51.046;6.980;2023-03-16T13:18:50;12.00;99.90
20504;DHT22;10410;51.046;6.980;2023-03-16T13:26:04;12.20;99.90
20504;DHT22;10410;51.046;6.980;2023-03-16T13:33:19;12.40;99.90
20504;DHT22;10410;51.046;6.980;2023-03-16T13:40:25;12.50;99.90
20504;DHT22;10410;51.046;6.980;2023-03-16T13:47:27;12.80;99.90
20504;DHT22;10410;51.046;6.980;2023-03-16T13:54:28;13.30;99.90
20504;DHT22;10410;51.046;6.980;2023-03-16T14:01:30;13.80;99.90
20504;DHT22;10410;51.046;6.980;2023-03-16T14:08:32;14.20;99.90
20504;DHT22;10410;51.046;6.980;2023-03-16T14:15:35;14.30;99.90
20504;DHT22;10410;51.046;6.980;2023-03-16T14:22:37;14.50;99.40
20504;DHT22;10410;51.046;6.980;2023-03-16T14:29:40;14.70;98.80
20504;DHT22;10410;51.046;6.980;2023-03-16T14:36:41;15.10;97.20
20504;DHT22;10410;51.046;6.980;2023-03-16T14:43:57;15.50;95.80
20504;DHT22;10410;51.046;6.980;2023-03-16T14:51:00;15.80;94.30
20504;DHT22;10410;51.046;6.980;2023-03-16T14:58:01;16.30;93.40
20504;DHT22;10410;51.046;6.980;2023-03-16T15:05:02;17.20;91.60
20504;DHT22;10410;51.046;6.980;2023-03-16T15:12:03;17.70;87.80
20504;DHT22;10410;51.046;6.980;2023-03-16T15:19:03;17.30;84.50
20504;DHT22;10410;51.046;6.980;2023-03-16T15:26:04;17.10;84.00
20504;DHT22;10410;51.046;6.980;2023-03-16T15:33:08;16.70;84.00
20504;DHT22;10410;51.046;6.980;2023-03-16T15:40:23;16.40;83.60
20504;DHT22;10410;51.046;6.980;2023-03-16T15:47:25;16.30;83.70
20504;DHT22;10410;51.046;6.980;2023-03-16T15:54:26;15.60;85.20
20504;DHT22;10410;51.046;6.980;2023-03-16T16:01:29;15.30;87.00
20504;DHT22;10410;51.046;6.980;2023-03-16T16:08:31;14.60;88.60
20504;DHT22;10410;51.046;6.980;2023-03-16T16:15:33;13.90;90.80
20504;DHT22;10410;51.046;6.980;2023-03-16T16:22:36;13.30;91.60
20504;DHT22;10410;51.046;6.980;2023-03-16T16:29:38;12.90;92.50
20504;DHT22;10410;51.046;6.980;2023-03-16T16:36:38;12.60;93.30
20504;DHT22;10410;51.046;6.980;2023-03-16T16:43:44;12.40;94.00
20504;DHT22;10410;51.046;6.980;2023-03-16T16:50:47;12.20;94.60
20504;DHT22;10410;51.046;6.980;2023-03-16T16:57:48;12.00;95.30
20504;DHT22;10410;51.046;6.980;2023-03-16T17:04:50;11.80;96.00
20504;DHT22;10410;51.046;6.980;2023-03-16T17:11:51;11.70;96.60
20504;DHT22;10410;51.046;6.980;2023-03-16T17:18:54;11.60;97.20
20504;DHT22;10410;51.046;6.980;2023-03-16T17:25:59;11.50;97.70
20504;DHT22;10410;51.046;6.980;2023-03-16T17:33:13;11.30;98.30
20504;DHT22;10410;51.046;6.980;2023-03-16T17:40:23;11.20;98.80
20504;DHT22;10410;51.046;6.980;2023-03-16T17:47:26;11.10;99.40
20504;DHT22;10410;51.046;6.980;2023-03-16T17:54:27;10.90;99.80
20504;DHT22;10410;51.046;6.980;2023-03-16T18:01:30;10.80;99.90
20504;DHT22;10410;51.046;6.980;2023-03-16T18:08:34;10.70;99.90
20504;DHT22;10410;51.046;6.980;2023-03-16T18:15:35;10.60;99.90
20504;DHT22;10410;51.046;6.980;2023-03-16T18:22:36;10.50;99.90
20504;DHT22;10410;51.046;6.980;2023-03-16T18:29:36;10.40;99.90
20504;DHT22;10410;51.046;6.980;2023-03-16T18:36:37;10.30;99.90
20504;DHT22;10410;51.046;6.980;2023-03-16T18:43:39;10.20;99.90
20504;DHT22;10410;51.046;6.980;2023-03-16T18:50:39;10.10;99.90
20504;DHT22;10410;51.046;6.980;2023-03-16T18:57:42;10.00;99.90
20504;DHT22;10410;51.046;6.980;2023-03-16T19:04:44;9.90;99.90
20504;DHT22;10410;51.046;6.980;2023-03-16T19:11:44;9.90;99.90
20504;DHT22;10410;51.046;6.980;2023-03-16T19:18:45;9.80;99.90
20504;DHT22;10410;51.046;6.980;2023-03-16T19:25:46;9.70;99.90
20504;DHT22;10410;51.046;6.980;2023-03-16T19:32:46;9.60;99.90
20504;DHT22;10410;51.046;6.980;2023-03-16T19:39:46;9.60;99.90
20504;DHT22;10410;51.046;6.980;2023-03-16T19:46:47;9.50;99.90
20504;DHT22;10410;51.046;6.980;2023-03-16T19:53:48;9.50;99.90
20504;DHT22;10410;51.046;6.980;2023-03-16T20:00:49;9.40;99.90
20504;DHT22;10410;51.046;6.980;2023-03-16T20:07:51;9.40;99.90
20504;DHT22;10410;51.046;6.980;2023-03-16T20:14:52;9.30;99.90
20504;DHT22;10410;51.046;6.980;2023-03-16T20:21:53;9.20;99.90
20504;DHT22;10410;51.046;6.980;2023-03-16T20:28:53;9.20;99.90
20504;DHT22;10410;51.046;6.980;2023-03-16T20:35:54;9.20;99.90
20504;DHT22;10410;51.046;6.980;2023-03-16T20:42:55;9.10;99.90
20504;DHT22;10410;51.046;6.980;2023-03-16T20:49:55;9.00;99.90
20504;DHT22;10410;51.046;6.980;2023-03-16T20:56:58;9.00;99.90
20504;DHT22;10410;51.046;6.980;2023-03-16T21:03:59;9.00;99.90
20504;DHT22;10410;51.046;6.980;2023-03-16T21:10:59;9.00;99.90
20504;DHT22;10410;51.046;6.980;2023-03-16T21:18:02;8.90;99.90
20504;DHT22;10410;51.046;6.980;2023-03-16T21:25:02;8.90;99.90
20504;DHT22;10410;51.046;6.980;2023-03-16T21:32:18;8.90;99.90
20504;DHT22;10410;51.046;6.980;2023-03-16T21:39:20;8.90;99.90
20504;DHT22;10410;51.046;6.980;2023-03-16T21:46:23;8.90;99.90
20504;DHT22;10410;51.046;6.980;2023-03-16T21:53:28;8.90;99.90
20504;DHT22;10410;51.046;6.980;2023-03-16T22:00:30;8.90;99.90
20504;DHT22;10410;51.046;6.980;2023-03-16T22:07:34;8.90;99.90
20504;DHT22;10410;51.046;6.980;2023-03-16T22:14:35;8.80;99.90
20504;DHT22;10410;51.046;6.980;2023-03-16T22:21:38;8.80;99.90
20504;DHT22;10410;51.046;6.980;2023-03-16T22:28:39;8.80;99.90
20504;DHT22;10410;51.046;6.980;2023-03-16T22:35:40;8.80;99.90
20504;DHT22;10410;51.046;6.980;2023-03-16T22:42:41;8.70;99.90
20504;DHT22;10410;51.046;6.980;2023-03-16T22:49:41;8.70;99.90
20504;DHT22;10410;51.046;6.980;2023-03-16T22:56:44;8.70;99.90
20504;DHT22;10410;51.046;6.980;2023-03-16T23:03:48;8.80;99.90
20504;DHT22;10410;51.046;6.980;2023-03-16T23:10:50;8.80;99.90
20504;DHT22;10410;51.046;6.980;2023-03-16T23:17:51;8.80;99.90
20504;DHT22;10410;51.046;6.980;2023-03-16T23:24:51;8.80;99.90
20504;DHT22;10410;51.046;6.980;2023-03-16T23:31:52;8.80;99.90
20504;DHT22;10410;51.046;6.980;2023-03-16T23:38:52;8.80;99.90
20504;DHT22;10410;51.046;6.980;2023-03-16T23:45:53;8.80;99.90
20504;DHT22;10410;51.046;6.980;2023-03-16T23:52:53;8.80;99.90
20504;DHT22;10410;51.046;6.980;2023-03-16T23:59:53;8.90;99.90
